^^
Lisbon, NH - Weather Station Historical Data
Daily Summary for August 25, 2021 Units:  English    Metric   Both
Daily Weekly Monthly Yearly
  High: Low: Average:
Temperature: 88 °F 62.1 °F 73.1 °F
Dew Point: 73 °F 62.1 °F 67.3 °F
Humidity: 100% 50.5% 85%
Wind Speed: 3.2mph 0mph 0.5mph
Wind Gust: 8mph - -
Wind- - SSW
Pressure: 30.07 in 29.96 in -
Precipitation: 0.00 in    
 
 
Tabular Data for August 25, 2021
Time Temperature Dew Point Pressure Wind Wind Speed Wind Gust Humidity Rainfall Rate (Hourly) solar
00:04 65.8 °F 65.5 °F 29.97 in Calm     99.1% 0.00 in 0 W/m2
00:09 65.6 °F 65.6 °F 29.97 in Calm     100% 0.00 in 0 W/m2
00:14 65.6 °F 65.6 °F 29.97 in Calm     100% 0.00 in 0 W/m2
00:19 65.6 °F 65.6 °F 29.96 in Calm     100% 0.00 in 0 W/m2
00:24 65.5 °F 65.5 °F 29.96 in Calm     100% 0.00 in 0 W/m2
00:29 65.5 °F 65.5 °F 29.97 in Calm     100% 0.00 in 0 W/m2
00:34 65.4 °F 65.4 °F 29.97 in Calm     100% 0.00 in 0 W/m2
00:39 65.3 °F 65.3 °F 29.97 in Calm     100% 0.00 in 0 W/m2
00:44 65.2 °F 65.2 °F 29.97 in Calm     100% 0.00 in 0 W/m2
00:49 65.2 °F 65.2 °F 29.97 in Calm     100% 0.00 in 0 W/m2
00:54 65.2 °F 65.2 °F 29.97 in Calm     100% 0.00 in 0 W/m2
00:59 65.2 °F 65.2 °F 29.98 in Calm     100% 0.00 in 0 W/m2
01:04 65.1 °F 65.1 °F 29.98 in Calm     100% 0.00 in 0 W/m2
01:09 65.1 °F 65.1 °F 29.98 in Calm     100% 0.00 in 0 W/m2
01:14 65.1 °F 65.1 °F 29.98 in Calm     100% 0.00 in 0 W/m2
01:19 65 °F 65 °F 29.98 in Calm     100% 0.00 in 0 W/m2
01:24 64.8 °F 64.8 °F 29.98 in Calm     100% 0.00 in 0 W/m2
01:29 64.8 °F 64.8 °F 29.98 in Calm     100% 0.00 in 0 W/m2
01:34 64.6 °F 64.6 °F 29.98 in Calm     100% 0.00 in 0 W/m2
01:39 64.5 °F 64.5 °F 29.98 in Calm     100% 0.00 in 0 W/m2
01:44 64.3 °F 64.3 °F 29.99 in Calm     100% 0.00 in 0 W/m2
01:49 64.3 °F 64.3 °F 29.99 in Calm     100% 0.00 in 0 W/m2
01:54 64.2 °F 64.2 °F 29.99 in Calm     100% 0.00 in 0 W/m2
01:59 64.2 °F 64.2 °F 29.99 in Calm     100% 0.00 in 0 W/m2
02:04 64.2 °F 64.2 °F 29.98 in Calm     100% 0.00 in 0 W/m2
02:09 64 °F 64 °F 29.98 in Calm     100% 0.00 in 0 W/m2
02:14 63.9 °F 63.9 °F 29.98 in Calm     100% 0.00 in 0 W/m2
02:19 63.9 °F 63.9 °F 29.98 in Calm     100% 0.00 in 0 W/m2
02:24 63.9 °F 63.9 °F 29.98 in Calm     100% 0.00 in 0 W/m2
02:29 63.9 °F 63.9 °F 29.98 in Calm     100% 0.00 in 0 W/m2
02:34 63.9 °F 63.9 °F 29.98 in Calm     100% 0.00 in 0 W/m2
02:39 63.9 °F 63.9 °F 29.98 in Calm     100% 0.00 in 0 W/m2
02:44 63.9 °F 63.9 °F 29.98 in Calm     100% 0.00 in 0 W/m2
02:49 63.9 °F 63.9 °F 29.98 in Calm     100% 0.00 in 0 W/m2
02:54 63.9 °F 63.9 °F 29.98 in Calm     100% 0.00 in 0 W/m2
02:59 64 °F 64 °F 29.99 in Calm     100% 0.00 in 0 W/m2
03:04 64 °F 64 °F 29.99 in Calm     100% 0.00 in 0 W/m2
03:09 64 °F 64 °F 29.99 in Calm     100% 0.00 in 0 W/m2
03:14 63.9 °F 63.9 °F 30.00 in Calm     100% 0.00 in 0 W/m2
03:19 63.9 °F 63.9 °F 30.00 in Calm     100% 0.00 in 0 W/m2
03:24 63.9 °F 63.9 °F 30.00 in Calm     100% 0.00 in 0 W/m2
03:29 63.8 °F 63.8 °F 30.00 in Calm     100% 0.00 in 0 W/m2
03:34 63.7 °F 63.7 °F 30.00 in Calm     100% 0.00 in 0 W/m2
03:39 63.5 °F 63.5 °F 30.00 in Calm     100% 0.00 in 0 W/m2
03:44 63.5 °F 63.5 °F 30.01 in Calm     100% 0.00 in 0 W/m2
03:49 63.5 °F 63.5 °F 30.01 in Calm     100% 0.00 in 0 W/m2
03:54 63.4 °F 63.4 °F 30.01 in Calm     100% 0.00 in 0 W/m2
03:59 63.3 °F 63.3 °F 30.01 in Calm     100% 0.00 in 0 W/m2
04:04 63.2 °F 63.2 °F 30.01 in Calm     100% 0.00 in 0 W/m2
04:09 63.2 °F 63.2 °F 30.01 in Calm     100% 0.00 in 0 W/m2
04:14 63.2 °F 63.2 °F 30.01 in Calm     100% 0.00 in 0 W/m2
04:19 63.1 °F 63.1 °F 30.01 in Calm     100% 0.00 in 0 W/m2
04:24 63 °F 63 °F 30.01 in Calm     100% 0.00 in 0 W/m2
04:29 62.9 °F 62.9 °F 30.01 in Calm     100% 0.00 in 0 W/m2
04:34 62.9 °F 62.9 °F 30.01 in Calm     100% 0.00 in 0 W/m2
04:39 62.9 °F 62.9 °F 30.01 in Calm     100% 0.00 in 0 W/m2
04:44 62.7 °F 62.7 °F 30.01 in Calm     100% 0.00 in 0 W/m2
04:49 62.7 °F 62.7 °F 30.01 in Calm     100% 0.00 in 0 W/m2
04:54 62.7 °F 62.7 °F 30.01 in Calm     100% 0.00 in 0 W/m2
04:59 62.6 °F 62.6 °F 30.02 in Calm     100% 0.00 in 0 W/m2
05:04 62.6 °F 62.6 °F 30.02 in Calm     100% 0.00 in 0 W/m2
05:09 62.5 °F 62.5 °F 30.02 in Calm     100% 0.00 in 0 W/m2
05:14 62.4 °F 62.4 °F 30.03 in Calm     100% 0.00 in 0 W/m2
05:19 62.4 °F 62.4 °F 30.03 in Calm     100% 0.00 in 0 W/m2
05:24 62.4 °F 62.4 °F 30.03 in Calm     100% 0.00 in 0 W/m2
05:29 62.4 °F 62.4 °F 30.03 in Calm     100% 0.00 in 0 W/m2
05:34 62.4 °F 62.4 °F 30.03 in Calm     100% 0.00 in 0 W/m2
05:39 62.4 °F 62.4 °F 30.03 in Calm     100% 0.00 in 0 W/m2
05:44 62.3 °F 62.3 °F 30.03 in Calm     100% 0.00 in 0 W/m2
05:49 62.3 °F 62.3 °F 30.03 in Calm     100% 0.00 in 0 W/m2
05:54 62.2 °F 62.2 °F 30.03 in Calm     100% 0.00 in 0 W/m2
05:59 62.1 °F 62.1 °F 30.04 in Calm     100% 0.00 in 0 W/m2
06:04 62.1 °F 62.1 °F 30.04 in Calm     100% 0.00 in 5 W/m2
06:09 62.1 °F 62.1 °F 30.04 in Calm     100% 0.00 in 5 W/m2
06:14 62.3 °F 62.3 °F 30.05 in Calm     100% 0.00 in 7 W/m2
06:19 62.4 °F 62.4 °F 30.05 in Calm     100% 0.00 in 11 W/m2
06:24 62.4 °F 62.4 °F 30.05 in Calm     100% 0.00 in 12 W/m2
06:29 62.4 °F 62.4 °F 30.05 in Calm     100% 0.00 in 14 W/m2
06:34 62.5 °F 62.5 °F 30.05 in Calm     100% 0.00 in 16 W/m2
06:39 62.6 °F 62.6 °F 30.05 in Calm     100% 0.00 in 16 W/m2
06:44 62.4 °F 62.4 °F 30.05 in Calm     100% 0.00 in 16 W/m2
06:49 62.4 °F 62.4 °F 30.05 in Calm     100% 0.00 in 21 W/m2
06:54 62.4 °F 62.4 °F 30.05 in Calm     100% 0.00 in 26 W/m2
06:59 62.5 °F 62.5 °F 30.06 in Calm     100% 0.00 in 26 W/m2
07:04 62.4 °F 62.4 °F 30.06 in Calm     100% 0.00 in 25 W/m2
07:09 62.4 °F 62.4 °F 30.06 in Calm     100% 0.00 in 32 W/m2
07:14 62.4 °F 62.4 °F 30.07 in Calm     100% 0.00 in 46 W/m2
07:19 62.4 °F 62.4 °F 30.07 in Calm     100% 0.00 in 55 W/m2
07:24 62.6 °F 62.6 °F 30.07 in Calm     100% 0.00 in 63 W/m2
07:29 62.7 °F 62.7 °F 30.07 in Calm     100% 0.00 in 67 W/m2
07:34 62.8 °F 62.8 °F 30.06 in Calm     100% 0.00 in 74 W/m2
07:39 62.8 °F 62.8 °F 30.06 in Calm     100% 0.00 in 88 W/m2
07:44 62.9 °F 62.9 °F 30.07 in Calm     100% 0.00 in 102 W/m2
07:49 62.9 °F 62.9 °F 30.07 in Calm     100% 0.00 in 109 W/m2
07:54 62.9 °F 62.9 °F 30.07 in Calm     100% 0.00 in 127 W/m2
07:59 63.2 °F 63.2 °F 30.07 in Calm     100% 0.00 in 127 W/m2
08:04 63.3 °F 63.3 °F 30.07 in Calm     100% 0.00 in 130 W/m2
08:09 63.4 °F 63.4 °F 30.07 in Calm     100% 0.00 in 134 W/m2
08:14 63.5 °F 63.5 °F 30.07 in Calm     100% 0.00 in 178 W/m2
08:19 63.7 °F 63.7 °F 30.07 in Calm     100% 0.00 in 215 W/m2
08:24 64 °F 64 °F 30.07 in Calm     100% 0.00 in 215 W/m2
08:29 64.1 °F 64.1 °F 30.07 in Calm     100% 0.00 in 317 W/m2
08:34 64.5 °F 64.5 °F 30.06 in Calm     100% 0.00 in 334 W/m2
08:39 65.1 °F 65.1 °F 30.06 in ENE 0.5 mph 2 mph 100% 0.00 in 398 W/m2
08:44 65.6 °F 65.6 °F 30.06 in ENE 1.2 mph 3 mph 100% 0.00 in 364 W/m2
08:49 65.8 °F 65.8 °F 30.06 in ENE 1.2 mph 2 mph 100% 0.00 in 308 W/m2
08:54 66 °F 66 °F 30.06 in NE 0.8 mph 3 mph 100% 0.00 in 241 W/m2
08:59 66.4 °F 66.4 °F 30.07 in NE 1.4 mph 3 mph 100% 0.00 in 318 W/m2
09:04 67 °F 67 °F 30.07 in ENE 1 mph 2 mph 100% 0.00 in 493 W/m2
09:09 67.3 °F 67.3 °F 30.07 in East 1 mph 2 mph 100% 0.00 in 542 W/m2
09:14 68 °F 68 °F 30.07 in SSE 1.1 mph 2 mph 100% 0.00 in 537 W/m2
09:19 68.6 °F 68.3 °F 30.07 in ESE 0.7 mph 2 mph 99% 0.00 in 445 W/m2
09:24 69.1 °F 68.4 °F 30.07 in SSW 1.7 mph 4 mph 97.4% 0.00 in 472 W/m2
09:29 69.5 °F 68.2 °F 30.07 in SSW 1.9 mph 5 mph 95.5% 0.00 in 440 W/m2
09:34 69.5 °F 67.8 °F 30.07 in SW 1.2 mph 5 mph 94.4% 0.00 in 408 W/m2
09:39 69.5 °F 67.7 °F 30.07 in SW 1.4 mph 2 mph 94% 0.00 in 308 W/m2
09:44 70 °F 67.8 °F 30.07 in South 1.2 mph 3 mph 92.9% 0.00 in 581 W/m2
09:49 70.5 °F 67.8 °F 30.07 in SSE 1.8 mph 3 mph 91.3% 0.00 in 618 W/m2
09:54 71.1 °F 68 °F 30.07 in SSE 1.7 mph 4 mph 90% 0.00 in 637 W/m2
09:59 71.7 °F 68.1 °F 30.07 in SSW 1.9 mph 5 mph 88.4% 0.00 in 646 W/m2
10:04 72.3 °F 68.1 °F 30.07 in SSW 2.1 mph 5 mph 86.9% 0.00 in 662 W/m2
10:09 72.9 °F 68.3 °F 30.07 in SSW 2.1 mph 4 mph 85.6% 0.00 in 672 W/m2
10:14 73.6 °F 68.4 °F 30.07 in SSW 1.2 mph 3 mph 83.7% 0.00 in 681 W/m2
10:19 74.3 °F 68.6 °F 30.06 in SSW 2.4 mph 6 mph 82.5% 0.00 in 681 W/m2
10:24 74.7 °F 68.5 °F 30.06 in South 2.3 mph 6 mph 81.3% 0.00 in 695 W/m2
10:29 75.1 °F 68.9 °F 30.06 in SSW 1.5 mph 5 mph 81% 0.00 in 702 W/m2
10:34 75.7 °F 68.9 °F 30.06 in SSW 3 mph 7 mph 79.4% 0.00 in 720 W/m2
10:39 76.1 °F 69 °F 30.06 in SSW 2.1 mph 5 mph 78.6% 0.00 in 725 W/m2
10:44 76.5 °F 69.3 °F 30.06 in SSW 2.1 mph 5 mph 78.4% 0.00 in 737 W/m2
10:49 77 °F 69.2 °F 30.06 in SSW 2.8 mph 6 mph 77% 0.00 in 746 W/m2
10:54 77.4 °F 69.6 °F 30.06 in SSW 2.7 mph 6 mph 76.9% 0.00 in 753 W/m2
10:59 77.8 °F 69.6 °F 30.06 in SSW 3 mph 6 mph 76% 0.00 in 762 W/m2
11:04 78.3 °F 69.6 °F 30.06 in SSW 2.6 mph 6 mph 74.7% 0.00 in 769 W/m2
11:09 78.6 °F 69.6 °F 30.06 in SSW 2.1 mph 6 mph 74% 0.00 in 776 W/m2
11:14 79.1 °F 69.8 °F 30.06 in SSW 1.8 mph 5 mph 73.2% 0.00 in 779 W/m2
11:19 79.9 °F 70.1 °F 30.06 in South 1.4 mph 4 mph 72.1% 0.00 in 790 W/m2
11:24 80.4 °F 69.8 °F 30.06 in SSW 1.8 mph 5 mph 70.2% 0.00 in 799 W/m2
11:29 80.8 °F 69.6 °F 30.06 in SSW 1.8 mph 4 mph 68.8% 0.00 in 808 W/m2
11:34 81.1 °F 69.2 °F 30.05 in SSW 3.2 mph 6 mph 67.2% 0.00 in 813 W/m2
11:39 81.4 °F 68.9 °F 30.05 in SSW 1.7 mph 5 mph 65.8% 0.00 in 815 W/m2
11:44 81.8 °F 69.1 °F 30.05 in SSE 1.4 mph 3 mph 65.6% 0.00 in 818 W/m2
11:49 82.2 °F 68 °F 30.04 in SSW 1.7 mph 5 mph 62.2% 0.00 in 816 W/m2
11:54 82.6 °F 68.8 °F 30.04 in South 1.4 mph 5 mph 63% 0.00 in 825 W/m2
11:59 83.3 °F 69.5 °F 30.04 in South 0.8 mph 5 mph 63.2% 0.00 in 829 W/m2
12:04 84 °F 70.3 °F 30.04 in SW 1.1 mph 5 mph 63.5% 0.00 in 834 W/m2
12:09 84.1 °F 69.1 °F 30.04 in SSW 1.9 mph 8 mph 60.7% 0.00 in 834 W/m2
12:14 84.3 °F 69.3 °F 30.04 in SSW 2.7 mph 8 mph 60.7% 0.00 in 834 W/m2
12:19 84.4 °F 67.9 °F 30.03 in SSW 2.3 mph 6 mph 57.7% 0.00 in 834 W/m2
12:24 84.5 °F 67.8 °F 30.03 in SW 1.9 mph 6 mph 57.3% 0.00 in 832 W/m2
12:29 84.9 °F 67.7 °F 30.03 in SSW 1.8 mph 5 mph 56.6% 0.00 in 832 W/m2
12:34 85.3 °F 68.5 °F 30.03 in South 1 mph 5 mph 57.2% 0.00 in 827 W/m2
12:39 85.7 °F 68.5 °F 30.03 in SSW 0.8 mph 4 mph 56.6% 0.00 in 830 W/m2
12:44 86 °F 68 °F 30.03 in SSW 2 mph 6 mph 55.2% 0.00 in 832 W/m2
12:49 85.9 °F 67.6 °F 30.02 in SW 2.2 mph 6 mph 54.4% 0.00 in 830 W/m2
12:54 86.1 °F 68.1 °F 30.02 in SSW 1.3 mph 5 mph 55.1% 0.00 in 825 W/m2
12:59 86.4 °F 68.3 °F 30.02 in SSW 1.5 mph 6 mph 54.9% 0.00 in 829 W/m2
13:04 86.5 °F 68.3 °F 30.01 in SW 2.1 mph 6 mph 54.7% 0.00 in 827 W/m2
13:09 86.5 °F 68.8 °F 30.01 in SSW 0.7 mph 3 mph 55.9% 0.00 in 827 W/m2
13:14 86.5 °F 69.1 °F 30.01 in SSW 1.4 mph 5 mph 56.2% 0.00 in 822 W/m2
13:19 86.4 °F 68 °F 30.01 in SSW 2.4 mph 6 mph 54.2% 0.00 in 820 W/m2
13:24 86.4 °F 68.3 °F 30.01 in SSW 2.1 mph 6 mph 54.9% 0.00 in 815 W/m2
13:29 86.9 °F 68.7 °F 30.02 in SW 1.5 mph 5 mph 54.8% 0.00 in 797 W/m2
13:34 87.1 °F 67.8 °F 30.02 in SSE 0.9 mph 3 mph 52.8% 0.00 in 799 W/m2
13:39 87.2 °F 69 °F 30.02 in SSW 0.6 mph 2 mph 54.9% 0.00 in 795 W/m2
13:44 87.5 °F 68.8 °F 30.02 in SW 2.6 mph 7 mph 54.1% 0.00 in 797 W/m2
13:49 87.3 °F 68.2 °F 30.01 in South 2.3 mph 6 mph 53.1% 0.00 in 788 W/m2
13:54 87.2 °F 68.9 °F 30.01 in SSW 1.4 mph 6 mph 54.6% 0.00 in 774 W/m2
13:59 87.5 °F 69.8 °F 30.01 in WSW 1.6 mph 6 mph 56% 0.00 in 748 W/m2
14:04 87.6 °F 70 °F 30.01 in SSW 1.2 mph 6 mph 56% 0.00 in 746 W/m2
14:09 87.8 °F 69.4 °F 30.01 in WSW 1.3 mph 5 mph 54.6% 0.00 in 746 W/m2
14:14 87.5 °F 68.6 °F 30.01 in South 1.2 mph 6 mph 53.7% 0.00 in 743 W/m2
14:19 87.6 °F 68.9 °F 30.01 in SSW 0.7 mph 3 mph 54% 0.00 in 695 W/m2
14:24 87.9 °F 68.6 °F 30.01 in SSW 1.3 mph 4 mph 52.9% 0.00 in 699 W/m2
14:29 88 °F 68 °F 30.01 in SSW 3.2 mph 6 mph 51.7% 0.00 in 693 W/m2
14:34 87.6 °F 68.3 °F 30.00 in SSW 0.4 mph 6 mph 52.9% 0.00 in 683 W/m2
14:39 87.6 °F 68.4 °F 30.00 in South 0.9 mph 2 mph 53% 0.00 in 648 W/m2
14:44 87.6 °F 68.5 °F 30.00 in SW 0.2 mph 2 mph 53.2% 0.00 in 413 W/m2
14:49 87.5 °F 68.9 °F 30.00 in SW 0.4 mph 2 mph 54.3% 0.00 in 238 W/m2
14:54 87.4 °F 69 °F 30.00 in SSW 1.8 mph 3 mph 54.5% 0.00 in 137 W/m2
14:59 87.3 °F 68.4 °F 30.00 in South 0.9 mph 3 mph 53.5% 0.00 in 137 W/m2
15:04 87.2 °F 69.1 °F 30.00 in SSW 0.9 mph 3 mph 54.9% 0.00 in 134 W/m2
15:09 87.2 °F 68.8 °F 30.00 in SSW 1.9 mph 6 mph 54.5% 0.00 in 118 W/m2
15:14 86.8 °F 68.3 °F 30.00 in SW 1.6 mph 6 mph 54.3% 0.00 in 153 W/m2
15:19 86.5 °F 67.9 °F 30.00 in SSW 1.8 mph 6 mph 54% 0.00 in 153 W/m2
15:24 86.4 °F 66.6 °F 30.00 in SW 2.1 mph 5 mph 51.8% 0.00 in 118 W/m2
15:29 86.3 °F 67.1 °F 30.00 in SSW 0.9 mph 4 mph 52.9% 0.00 in 104 W/m2
15:34 86.3 °F 68.2 °F 30.00 in SW 1.3 mph 5 mph 55% 0.00 in 104 W/m2
15:39 86.3 °F 68.5 °F 30.00 in SSW 0.8 mph 3 mph 55.5% 0.00 in 169 W/m2
15:44 86.3 °F 67.7 °F 30.00 in SSW 0.5 mph 3 mph 53.9% 0.00 in 232 W/m2
15:49 86.3 °F 66.8 °F 29.99 in South 0.5 mph 3 mph 52.4% 0.00 in 100 W/m2
15:54 86.3 °F 65.8 °F 29.99 in South 1.4 mph 5 mph 50.5% 0.00 in 91 W/m2
15:59 86.5 °F 68.3 °F 29.99 in SSW 0.4 mph 5 mph 54.7% 0.00 in 88 W/m2
16:04 86.5 °F 67 °F 29.98 in SW 0.6 mph 2 mph 52.4% 0.00 in 106 W/m2
16:09 86.4 °F 68.3 °F 29.98 in SW 0.9 mph 3 mph 55% 0.00 in 106 W/m2
16:14 86.3 °F 68.3 °F 29.98 in WSW 0.2 mph 1 mph 55.2% 0.00 in 86 W/m2
16:19 86.2 °F 68.5 °F 29.98 in WSW 0.7 mph 3 mph 55.7% 0.00 in 91 W/m2
16:24 86 °F 68 °F 29.98 in Calm   1 mph 55.1% 0.00 in 86 W/m2
16:29 85.9 °F 67.3 °F 29.98 in WSW 0.7 mph 3 mph 54% 0.00 in 123 W/m2
16:34 85.9 °F 67.8 °F 29.98 in SW 0.8 mph 5 mph 54.8% 0.00 in 102 W/m2
16:39 85.8 °F 67.9 °F 29.98 in SW 1.6 mph 5 mph 55.3% 0.00 in 95 W/m2
16:44 85.7 °F 67.1 °F 29.98 in SW 1.2 mph 5 mph 54% 0.00 in 74 W/m2
16:49 85.7 °F 67.7 °F 29.98 in SSW 1 mph 3 mph 55.1% 0.00 in 67 W/m2
16:54 85.7 °F 68.4 °F 29.98 in SW 0.5 mph 3 mph 56.5% 0.00 in 65 W/m2
16:59 85.6 °F 68 °F 29.98 in SW 0.4 mph 2 mph 55.9% 0.00 in 62 W/m2
17:04 85.5 °F 68 °F 29.98 in Calm     55.9% 0.00 in 88 W/m2
17:09 85.5 °F 70.5 °F 29.98 in Calm     61% 0.00 in 79 W/m2
17:14 85.4 °F 71.4 °F 29.98 in SW 0.1 mph 2 mph 63.1% 0.00 in 72 W/m2
17:19 85 °F 71.3 °F 29.98 in SW 0.1 mph 2 mph 63.6% 0.00 in 58 W/m2
17:24 84.7 °F 71.6 °F 29.98 in Calm     64.8% 0.00 in 70 W/m2
17:29 84.5 °F 71.8 °F 29.98 in Calm     65.8% 0.00 in 55 W/m2
17:34 84.1 °F 72 °F 29.98 in Calm     67.1% 0.00 in 55 W/m2
17:39 83.9 °F 72.2 °F 29.98 in Calm     68.1% 0.00 in 62 W/m2
17:44 83.4 °F 72.1 °F 29.98 in Calm     68.8% 0.00 in 51 W/m2
17:49 83 °F 71.8 °F 29.98 in Calm     69% 0.00 in 49 W/m2
17:54 82.5 °F 71.7 °F 29.98 in Calm     69.9% 0.00 in 48 W/m2
17:59 82 °F 71.7 °F 29.98 in Calm     71% 0.00 in 42 W/m2
18:04 81.5 °F 71.6 °F 29.98 in Calm     71.9% 0.00 in 42 W/m2
18:09 81.1 °F 71.7 °F 29.98 in Calm     73.3% 0.00 in 39 W/m2
18:14 80.7 °F 71.7 °F 29.98 in Calm     74.1% 0.00 in 40 W/m2
18:19 80.3 °F 71.9 °F 29.98 in Calm     75.5% 0.00 in 40 W/m2
18:24 80.1 °F 72.1 °F 29.98 in Calm     76.8% 0.00 in 33 W/m2
18:29 79.7 °F 72.1 °F 29.98 in Calm     77.6% 0.00 in 33 W/m2
18:34 79.4 °F 72.4 °F 29.98 in Calm     79.2% 0.00 in 32 W/m2
18:39 79 °F 72.4 °F 29.98 in Calm     80.4% 0.00 in 28 W/m2
18:44 78.6 °F 72.7 °F 29.98 in Calm     82.1% 0.00 in 28 W/m2
18:49 78.5 °F 72.9 °F 29.98 in Calm     83% 0.00 in 26 W/m2
18:54 78.2 °F 73 °F 29.98 in Calm     83.8% 0.00 in 25 W/m2
18:59 78 °F 72.8 °F 29.99 in Calm     84% 0.00 in 25 W/m2
19:04 77.7 °F 72.8 °F 29.99 in Calm     84.8% 0.00 in 23 W/m2
19:09 77.6 °F 72.7 °F 29.99 in Calm     85% 0.00 in 19 W/m2
19:14 77.3 °F 72.8 °F 29.99 in Calm     86% 0.00 in 16 W/m2
19:19 77.1 °F 72.6 °F 29.99 in Calm     86% 0.00 in 12 W/m2
19:24 76.8 °F 72.3 °F 29.99 in Calm     86% 0.00 in 9 W/m2
19:29 76.6 °F 72.1 °F 29.99 in Calm     86% 0.00 in 7 W/m2
19:34 76.3 °F 72 °F 29.99 in Calm     86.7% 0.00 in 7 W/m2
19:39 76 °F 71.9 °F 29.99 in Calm     87% 0.00 in 5 W/m2
19:44 75.8 °F 71.9 °F 30.00 in Calm     87.6% 0.00 in 0 W/m2
19:49 75.5 °F 71.7 °F 30.00 in Calm     88% 0.00 in 0 W/m2
19:54 75.3 °F 71.8 °F 30.00 in Calm     88.8% 0.00 in 0 W/m2
19:59 75 °F 71.6 °F 30.00 in Calm     89% 0.00 in 0 W/m2
20:04 74.7 °F 71.5 °F 30.00 in Calm     89.6% 0.00 in 0 W/m2
20:09 74.6 °F 71.4 °F 30.00 in Calm     90% 0.00 in 0 W/m2
20:14 74.3 °F 71.4 °F 30.00 in Calm     90.4% 0.00 in 0 W/m2
20:19 74.1 °F 71.3 °F 30.00 in Calm     91% 0.00 in 0 W/m2
20:24 73.9 °F 71.1 °F 30.00 in Calm     91% 0.00 in 0 W/m2
20:29 73.7 °F 71.2 °F 30.00 in Calm     92% 0.00 in 0 W/m2
20:34 73.5 °F 71 °F 30.00 in Calm     92% 0.00 in 0 W/m2
20:39 73.3 °F 70.8 °F 30.00 in Calm     92% 0.00 in 0 W/m2
20:44 73.1 °F 71 °F 30.00 in Calm     93% 0.00 in 0 W/m2
20:49 72.9 °F 70.8 °F 30.00 in Calm     93% 0.00 in 0 W/m2
20:54 72.7 °F 70.6 °F 30.00 in Calm     93% 0.00 in 0 W/m2
20:59 72.5 °F 70.7 °F 30.01 in Calm     94% 0.00 in 0 W/m2
21:04 72.4 °F 70.6 °F 30.01 in Calm     94% 0.00 in 0 W/m2
21:09 72.3 °F 70.4 °F 30.01 in Calm     94% 0.00 in 0 W/m2
21:14 72.1 °F 70.3 °F 30.01 in Calm     94% 0.00 in 0 W/m2
21:19 71.9 °F 70.4 °F 30.01 in Calm     95% 0.00 in 0 W/m2
21:24 71.8 °F 70.3 °F 30.01 in Calm     95% 0.00 in 0 W/m2
21:29 71.6 °F 70.1 °F 30.02 in Calm     95% 0.00 in 0 W/m2
21:34 71.5 °F 70 °F 30.02 in Calm     95% 0.00 in 0 W/m2
21:39 71.4 °F 70.1 °F 30.02 in Calm     95.8% 0.00 in 0 W/m2
21:44 71.2 °F 70 °F 30.02 in Calm     96% 0.00 in 0 W/m2
21:49 71 °F 69.8 °F 30.02 in Calm     96% 0.00 in 0 W/m2
21:54 70.9 °F 69.7 °F 30.02 in Calm     96% 0.00 in 0 W/m2
21:59 70.8 °F 69.6 °F 30.02 in Calm     96% 0.00 in 0 W/m2
22:04 70.7 °F 69.5 °F 30.02 in Calm     96.2% 0.00 in 0 W/m2
22:09 70.5 °F 69.6 °F 30.02 in Calm     97% 0.00 in 0 W/m2
22:14 70.4 °F 69.5 °F 30.02 in Calm     97% 0.00 in 0 W/m2
22:19 70.4 °F 69.5 °F 30.02 in Calm     97% 0.00 in 0 W/m2
22:24 70.3 °F 69.4 °F 30.02 in Calm     97% 0.00 in 0 W/m2
22:29 70.2 °F 69.3 °F 30.03 in Calm     97% 0.00 in 0 W/m2
22:34 70.1 °F 69.5 °F 30.03 in Calm     97.9% 0.00 in 0 W/m2
22:39 70 °F 69.4 °F 30.03 in Calm     98% 0.00 in 0 W/m2
22:44 69.9 °F 69.3 °F 30.03 in Calm     98% 0.00 in 0 W/m2
22:49 69.9 °F 69.3 °F 30.03 in Calm     98% 0.00 in 0 W/m2
22:54 69.8 °F 69.2 °F 30.03 in Calm     98% 0.00 in 0 W/m2
22:59 69.8 °F 69.2 °F 30.03 in Calm     98% 0.00 in 0 W/m2
23:04 69.8 °F 69.3 °F 30.03 in Calm     98.4% 0.00 in 0 W/m2
23:09 69.6 °F 69.3 °F 30.03 in Calm     98.8% 0.00 in 0 W/m2
23:14 69.6 °F 69.3 °F 30.03 in Calm     99% 0.00 in 0 W/m2
23:19 69.4 °F 69.1 °F 30.02 in Calm     99% 0.00 in 0 W/m2
23:24 69.4 °F 69.1 °F 30.02 in Calm     99% 0.00 in 0 W/m2
23:29 69.3 °F 69.1 °F 30.02 in Calm     99% 0.00 in 0 W/m2
23:34 69.3 °F 69 °F 30.02 in Calm     99% 0.00 in 0 W/m2
23:39 69.3 °F 69 °F 30.02 in Calm     99% 0.00 in 0 W/m2
23:44 69.1 °F 68.8 °F 30.02 in Calm     99% 0.00 in 0 W/m2
23:49 69.1 °F 68.8 °F 30.02 in Calm     99% 0.00 in 0 W/m2
23:54 69 °F 69 °F 30.02 in Calm     99.8% 0.00 in 0 W/m2
23:59 68.9 °F 68.9 °F 30.02 in Calm     100% 0.00 in 0 W/m2
Lisbon, New Hampshire, USA
Compliments of Weather Underground - 4 mb